Time;durP1;ratioP1;P1;durP2;ratioP2;P2;SDS_P1;SDS_P2;PMS_P1;PMS_P2;Temp;Humidity;BMP_temperature;BMP_pressure;BME280_temperature;BME280_humidity;BME280_pressure;Samples;Min_cycle;Max_cycle;Signal;HPM_P1;HPM_P2
2023/04/02 00:01:18;;;;;;;8.37;5.40;;;6.80;99.90;;;;;;5052489;28;20400;-54
2023/04/02 00:03:43;;;;;;;8.27;5.40;;;6.80;99.90;;;;;;5052042;28;20036;-53
2023/04/02 00:06:33;;;;;;;7.23;5.33;;;6.70;99.90;;;;;;5052313;28;20021;-52
2023/04/02 00:09:01;;;;;;;6.50;4.70;;;6.70;99.90;;;;;;5046935;28;20048;-56
2023/04/02 00:11:36;;;;;;;6.33;4.43;;;6.70;99.90;;;;;;5052184;28;20111;-55
2023/04/02 00:14:05;;;;;;;8.00;5.63;;;6.70;99.90;;;;;;5052005;28;20112;-55
2023/04/02 00:16:31;;;;;;;8.27;6.07;;;6.70;99.90;;;;;;5051836;28;20041;-54
2023/04/02 00:19:02;;;;;;;7.83;5.97;;;6.70;99.90;;;;;;5051912;28;20025;-56
2023/04/02 00:21:32;;;;;;;9.07;6.83;;;6.70;99.90;;;;;;5034222;28;20060;-57
2023/04/02 00:24:00;;;;;;;9.00;6.93;;;6.70;99.90;;;;;;5051270;28;20071;-52
2023/04/02 00:26:35;;;;;;;8.83;6.93;;;6.60;99.90;;;;;;5051626;28;20035;-55
2023/04/02 00:29:03;;;;;;;8.67;6.63;;;6.60;99.90;;;;;;5034027;28;20036;-57
2023/04/02 00:31:30;;;;;;;9.23;6.43;;;6.50;99.90;;;;;;5051821;28;20098;-53
2023/04/02 00:33:58;;;;;;;9.80;7.03;;;6.50;99.90;;;;;;5051547;28;20082;-54
2023/04/02 00:36:28;;;;;;;9.97;6.47;;;6.40;99.90;;;;;;5033545;28;20485;-56
2023/04/02 00:38:57;;;;;;;8.03;6.20;;;6.40;99.90;;;;;;5033730;28;20080;-57
2023/04/02 00:41:28;;;;;;;7.68;5.65;;;6.30;99.90;;;;;;5051511;28;20065;-53
2023/04/02 00:43:57;;;;;;;7.83;5.47;;;6.30;99.90;;;;;;5051321;28;20032;-56
2023/04/02 00:46:29;;;;;;;8.53;5.70;;;6.30;99.90;;;;;;5051404;28;20035;-55
2023/04/02 00:49:23;;;;;;;8.70;5.47;;;6.30;99.90;;;;;;5033505;28;20520;-56
2023/04/02 00:52:00;;;;;;;7.60;5.40;;;6.30;99.90;;;;;;5051283;28;20106;-54
2023/04/02 00:54:30;;;;;;;8.27;5.83;;;6.20;99.90;;;;;;5033272;28;20033;-54
2023/04/02 00:56:56;;;;;;;;;;;6.10;99.90;;;;;;5051487;28;20133;-55
2023/04/02 00:59:27;;;;;;;9.47;6.57;;;6.10;99.90;;;;;;5033408;28;19916;-54
2023/04/02 01:02:02;;;;;;;10.13;6.67;;;6.10;99.90;;;;;;5033243;28;20414;-54
2023/04/02 01:04:33;;;;;;;10.07;6.87;;;6.10;99.90;;;;;;5051004;28;20029;-56
2023/04/02 01:07:07;;;;;;;9.57;6.50;;;6.10;99.90;;;;;;5064260;22;20049;-50
2023/04/02 01:10:00;;;;;;;7.93;5.97;;;6.10;99.90;;;;;;5050997;28;20029;-51
2023/04/02 01:12:58;;;;;;;8.17;5.43;;;6.00;99.90;;;;;;5050987;28;20040;-47
2023/04/02 01:15:29;;;;;;;8.03;5.60;;;6.00;99.90;;;;;;5050905;28;20041;-52
2023/04/02 01:18:12;;;;;;;6.80;4.90;;;6.00;99.90;;;;;;5050783;28;20032;-51
2023/04/02 01:21:16;;;;;;;7.27;5.00;;;6.00;99.90;;;;;;5050696;28;20116;-47
2023/04/02 01:24:01;;;;;;;7.73;5.67;;;6.00;99.90;;;;;;5044311;28;20041;-48
2023/04/02 01:26:48;;;;;;;7.30;4.87;;;5.90;99.90;;;;;;5050637;28;20048;-48
2023/04/02 01:29:22;;;;;;;7.03;5.20;;;6.00;99.90;;;;;;5032877;28;20025;-51
2023/04/02 01:31:49;;;;;;;7.72;5.43;;;6.00;99.90;;;;;;5050816;28;20060;-49
2023/04/02 01:34:17;;;;;;;7.73;5.20;;;5.90;99.90;;;;;;5032601;28;20660;-50
2023/04/02 01:37:11;;;;;;;7.37;4.50;;;5.90;99.90;;;;;;5032636;28;20029;-51
2023/04/02 01:40:20;;;;;;;8.07;4.97;;;5.90;99.90;;;;;;5032625;28;20028;-50
2023/04/02 01:43:22;;;;;;;6.45;4.00;;;5.90;99.90;;;;;;5049885;28;20037;-50
2023/04/02 01:45:49;;;;;;;6.33;4.63;;;5.90;99.90;;;;;;5032544;28;20032;-52
2023/04/02 01:48:28;;;;;;;6.50;4.43;;;5.90;99.90;;;;;;5050578;28;20386;-53
2023/04/02 01:50:58;;;;;;;8.33;4.77;;;5.90;99.90;;;;;;5032696;28;20037;-51
2023/04/02 01:53:29;;;;;;;7.37;4.87;;;5.90;99.90;;;;;;5032440;28;20393;-53
2023/04/02 01:56:00;;;;;;;6.68;4.55;;;5.90;99.90;;;;;;5050414;28;20033;-48
2023/04/02 01:58:31;;;;;;;8.97;5.20;;;5.80;99.90;;;;;;5050238;28;20040;-50
2023/04/02 02:01:05;;;;;;;7.00;5.17;;;5.80;99.90;;;;;;5032495;28;20033;-48
2023/04/02 02:03:32;;;;;;;9.70;5.10;;;5.80;99.90;;;;;;5032339;28;20040;-49
2023/04/02 02:06:01;;;;;;;7.47;5.43;;;5.70;99.90;;;;;;5032289;28;20025;-49
2023/04/02 02:08:46;;;;;;;7.30;4.97;;;5.70;99.90;;;;;;5032168;28;20044;-48
2023/04/02 02:11:16;;;;;;;7.20;5.10;;;5.70;99.90;;;;;;5032392;28;20083;-48
2023/04/02 02:13:57;;;;;;;7.07;4.85;;;5.70;99.90;;;;;;5032233;28;20033;-51
2023/04/02 02:16:26;;;;;;;8.23;5.17;;;5.60;99.90;;;;;;5032130;28;20037;-51
2023/04/02 02:19:03;;;;;;;8.90;5.25;;;5.60;99.90;;;;;;5050167;28;20306;-51
2023/04/02 02:21:43;;;;;;;5.53;4.40;;;5.60;99.90;;;;;;5032411;28;20501;-49
2023/04/02 02:24:20;;;;;;;5.47;4.23;;;5.60;99.90;;;;;;5032226;28;20033;-53
2023/04/02 02:26:49;;;;;;;5.27;3.87;;;5.60;99.90;;;;;;5049896;28;20409;-50
2023/04/02 02:29:18;;;;;;;6.40;4.10;;;5.50;99.90;;;;;;5050192;28;20106;-52
2023/04/02 02:31:46;;;;;;;7.75;4.10;;;5.50;99.90;;;;;;5050084;28;20041;-49
2023/04/02 02:34:22;;;;;;;6.67;4.23;;;5.50;99.90;;;;;;5032062;28;20378;-52
2023/04/02 02:37:00;;;;;;;4.73;3.63;;;5.50;99.90;;;;;;5049980;28;20036;-49
2023/04/02 02:39:55;;;;;;;5.27;3.70;;;5.50;99.90;;;;;;5032157;28;20032;-50
2023/04/02 02:42:39;;;;;;;5.70;4.03;;;5.50;99.90;;;;;;5031082;28;20036;-49
2023/04/02 02:45:11;;;;;;;5.83;3.83;;;5.60;99.90;;;;;;5031970;28;20021;-50
2023/04/02 02:47:38;;;;;;;5.17;3.90;;;5.50;99.90;;;;;;5034165;28;20050;-52
2023/04/02 02:50:17;;;;;;;6.43;4.43;;;5.60;99.90;;;;;;5035771;28;20048;-51
2023/04/02 02:52:49;;;;;;;5.53;3.90;;;5.60;99.90;;;;;;5035789;28;20477;-52
2023/04/02 02:55:18;;;;;;;6.20;4.37;;;5.50;99.90;;;;;;5035630;28;20024;-50
2023/04/02 02:57:58;;;;;;;6.70;4.30;;;5.50;99.90;;;;;;5035506;28;20029;-51
2023/04/02 03:00:29;;;;;;;8.67;3.93;;;5.50;99.90;;;;;;5035892;28;20033;-52
2023/04/02 03:02:58;;;;;;;5.63;3.92;;;5.50;99.90;;;;;;5035487;28;20447;-50
2023/04/02 03:05:29;;;;;;;5.70;4.30;;;5.50;99.90;;;;;;5035622;28;20508;-50
2023/04/02 03:08:03;;;;;;;5.40;4.27;;;5.50;99.90;;;;;;5035159;28;20509;-48
2023/04/02 03:10:36;;;;;;;;;;;5.50;99.90;;;;;;5036037;28;20562;-52
2023/04/02 03:13:18;;;;;;;5.93;4.40;;;5.50;99.90;;;;;;5035304;28;19908;-49
2023/04/02 03:15:57;;;;;;;6.57;3.80;;;5.50;99.90;;;;;;5035421;28;20033;-49
2023/04/02 03:18:50;;;;;;;6.20;3.60;;;5.50;99.90;;;;;;5035254;28;20035;-47
2023/04/02 03:21:52;;;;;;;7.93;3.80;;;5.40;99.90;;;;;;5053187;28;20090;-48
2023/04/02 03:24:33;;;;;;;7.10;3.70;;;5.30;99.90;;;;;;5023842;28;20041;-50
2023/04/02 03:27:10;;;;;;;9.90;3.83;;;5.30;99.90;;;;;;5052919;28;20029;-50
2023/04/02 03:29:42;;;;;;;4.77;3.47;;;5.30;99.90;;;;;;5035139;28;20059;-50
2023/04/02 03:32:42;;;;;;;6.67;4.00;;;5.20;99.90;;;;;;5035125;28;20029;-49
2023/04/02 03:35:38;;;;;;;5.72;3.92;;;5.20;99.90;;;;;;5023449;28;20131;-48
2023/04/02 03:38:25;;;;;;;7.60;4.13;;;5.20;99.90;;;;;;5034639;28;20032;-53
2023/04/02 03:41:10;;;;;;;6.80;4.03;;;5.20;99.90;;;;;;5052280;28;20037;-51
2023/04/02 03:43:41;;;;;;;4.90;3.87;;;5.20;99.90;;;;;;5052730;28;20017;-51
2023/04/02 03:46:17;;;;;;;14.30;4.30;;;5.10;99.90;;;;;;5034861;28;20029;-49
2023/04/02 03:48:48;;;;;;;5.20;3.50;;;5.10;99.90;;;;;;5034552;28;20118;-49
2023/04/02 03:51:31;;;;;;;6.57;3.93;;;5.00;99.90;;;;;;5034788;28;20041;-51
2023/04/02 03:53:58;;;;;;;7.53;4.00;;;5.00;99.90;;;;;;5034516;28;20025;-53
2023/04/02 03:56:38;;;;;;;6.13;4.20;;;5.00;99.90;;;;;;5034396;28;20126;-49
2023/04/02 03:59:23;;;;;;;9.20;4.93;;;5.00;99.90;;;;;;5051087;28;20025;-49
2023/04/02 04:02:03;;;;;;;7.90;4.67;;;5.00;99.90;;;;;;5034590;28;20120;-52
2023/04/02 04:04:31;;;;;;;8.93;5.00;;;5.00;99.90;;;;;;5034318;28;20036;-50
2023/04/02 04:06:59;;;;;;;8.40;5.10;;;4.90;99.90;;;;;;5051980;28;20056;-48
2023/04/02 04:09:32;;;;;;;8.77;6.00;;;4.90;99.90;;;;;;5034202;28;20086;-50
2023/04/02 04:12:38;;;;;;;8.10;4.87;;;4.90;99.90;;;;;;5034410;28;20473;-50
2023/04/02 04:15:13;;;;;;;8.93;5.25;;;4.90;99.90;;;;;;5034168;28;20033;-49
2023/04/02 04:18:00;;;;;;;6.70;4.57;;;4.90;99.90;;;;;;5051876;28;20037;-50
2023/04/02 04:20:35;;;;;;;8.33;5.37;;;5.00;99.90;;;;;;5034084;28;20091;-51
2023/04/02 04:23:24;;;;;;;6.47;5.00;;;5.00;99.90;;;;;;5034157;28;20406;-47
2023/04/02 04:26:29;;;;;;;7.40;4.93;;;4.90;99.90;;;;;;5034054;28;20025;-51
2023/04/02 04:29:37;;;;;;;8.87;5.90;;;4.90;99.90;;;;;;5028246;28;20033;-47
2023/04/02 04:32:18;;;;;;;9.00;5.77;;;4.90;99.90;;;;;;5014219;28;20040;-51
2023/04/02 04:34:52;;;;;;;8.03;5.63;;;4.90;99.90;;;;;;5033888;28;20029;-49
2023/04/02 04:37:27;;;;;;;8.80;5.97;;;4.90;99.90;;;;;;5033647;28;20040;-50
2023/04/02 04:40:10;;;;;;;8.63;6.30;;;4.90;99.90;;;;;;5033804;28;20397;-52
2023/04/02 04:42:40;;;;;;;10.80;6.70;;;4.90;99.90;;;;;;5033827;28;20079;-48
2023/04/02 04:45:22;;;;;;;9.17;6.33;;;4.90;99.90;;;;;;5033628;28;20024;-52
2023/04/02 04:48:13;;;;;;;10.50;6.37;;;4.90;99.90;;;;;;5033573;28;20058;-48
2023/04/02 04:50:53;;;;;;;8.73;6.10;;;4.90;99.90;;;;;;5033675;28;20040;-51
2023/04/02 04:53:22;;;;;;;10.27;6.07;;;4.80;99.90;;;;;;5033423;28;20029;-49
2023/04/02 04:55:57;;;;;;;8.13;5.83;;;4.80;99.90;;;;;;5033521;28;20174;-51
2023/04/02 04:58:31;;;;;;;10.07;6.17;;;4.70;99.90;;;;;;5051229;28;20401;-48
2023/04/02 05:01:11;;;;;;;11.43;6.70;;;4.70;99.90;;;;;;5033739;28;20056;-50
2023/04/02 05:04:03;;;;;;;11.60;6.73;;;4.70;99.90;;;;;;5033296;28;20381;-52
2023/04/02 05:06:42;;;;;;;11.07;6.83;;;4.60;99.90;;;;;;5015479;28;20118;-51
2023/04/02 05:09:40;;;;;;;12.20;8.03;;;4.60;99.90;;;;;;5033025;28;20036;-50
2023/04/02 05:12:36;;;;;;;13.60;7.90;;;4.60;99.90;;;;;;5033229;28;20033;-51
2023/04/02 05:15:31;;;;;;;13.50;7.77;;;4.60;99.90;;;;;;5033184;28;20040;-49
2023/04/02 05:18:29;;;;;;;13.90;7.67;;;4.50;99.90;;;;;;5032831;28;20029;-51
2023/04/02 05:21:02;;;;;;;15.77;8.77;;;4.50;99.90;;;;;;5033133;28;20089;-49
2023/04/02 05:24:10;;;;;;;16.47;8.40;;;4.40;99.90;;;;;;5032962;28;20095;-49
2023/04/02 05:26:44;;;;;;;14.80;8.50;;;4.40;99.90;;;;;;5050592;28;20057;-48
2023/04/02 05:29:21;;;;;;;17.07;8.57;;;4.40;99.90;;;;;;5032927;28;20044;-49
2023/04/02 05:32:01;;;;;;;14.07;7.33;;;4.40;99.90;;;;;;5033013;28;20508;-48
2023/04/02 05:34:31;;;;;;;13.13;7.93;;;4.40;99.90;;;;;;5032784;28;20033;-51
2023/04/02 05:36:57;;;;;;;12.87;7.53;;;4.40;99.90;;;;;;5032750;28;20037;-49
2023/04/02 05:39:26;;;;;;;15.13;8.13;;;4.40;99.90;;;;;;5032725;28;20032;-50
2023/04/02 05:42:03;;;;;;;12.23;7.53;;;4.50;99.90;;;;;;5032623;28;20091;-52
2023/04/02 05:45:12;;;;;;;14.63;8.10;;;4.50;99.90;;;;;;5032612;28;20033;-50
2023/04/02 05:47:42;;;;;;;13.80;8.40;;;4.50;99.90;;;;;;5014768;28;20060;-52
2023/04/02 05:50:23;;;;;;;13.83;8.07;;;4.50;99.90;;;;;;5032490;28;20049;-49
2023/04/02 05:53:03;;;;;;;13.27;7.67;;;4.50;99.90;;;;;;5050853;28;20214;-49
2023/04/02 05:55:44;;;;;;;;;;;4.40;99.90;;;;;;5050938;28;20057;-50
2023/04/02 05:58:20;;;;;;;14.23;7.63;;;4.40;99.90;;;;;;5050121;28;19913;-49
2023/04/02 06:01:17;;;;;;;15.80;7.33;;;4.30;99.90;;;;;;5032363;28;20482;-52
2023/04/02 06:04:10;;;;;;;15.20;7.77;;;4.30;99.90;;;;;;5032220;28;20021;-50
2023/04/02 06:06:40;;;;;;;12.30;7.43;;;4.20;99.90;;;;;;5049966;28;20037;-50
2023/04/02 06:09:15;;;;;;;18.40;7.63;;;4.20;99.90;;;;;;5032233;28;20083;-47
2023/04/02 06:11:50;;;;;;;15.20;7.93;;;4.20;99.90;;;;;;5032382;28;20030;-50
2023/04/02 06:14:17;;;;;;;14.83;8.10;;;4.20;99.90;;;;;;5032195;28;20044;-51
2023/04/02 06:16:45;;;;;;;13.77;8.27;;;4.20;99.90;;;;;;5032036;28;20033;-50
2023/04/02 06:19:26;;;;;;;16.77;9.00;;;4.20;99.90;;;;;;5032061;28;20533;-51
2023/04/02 06:21:59;;;;;;;16.50;8.00;;;4.30;99.90;;;;;;5033341;28;20115;-52
2023/04/02 06:24:27;;;;;;;17.77;8.53;;;4.30;99.90;;;;;;5036093;28;20055;-52
2023/04/02 06:27:01;;;;;;;17.67;9.23;;;4.30;99.90;;;;;;5036082;28;20440;-53
2023/04/02 06:29:37;;;;;;;15.20;8.50;;;4.20;99.90;;;;;;5036271;28;20440;-51
2023/04/02 06:32:06;;;;;;;17.90;8.23;;;4.20;99.90;;;;;;5036170;28;20071;-51
2023/04/02 06:34:34;;;;;;;15.38;8.25;;;4.20;99.90;;;;;;5036053;28;20036;-50
2023/04/02 06:37:19;;;;;;;14.10;8.07;;;4.20;99.90;;;;;;5035924;28;20476;-50
2023/04/02 06:39:46;;;;;;;13.40;6.77;;;4.30;99.90;;;;;;5036190;28;20397;-50
2023/04/02 06:42:46;;;;;;;12.23;6.57;;;4.30;99.90;;;;;;5035941;28;20055;-49
2023/04/02 06:45:25;;;;;;;11.73;6.47;;;4.30;99.90;;;;;;5035744;28;20079;-50
2023/04/02 06:48:18;;;;;;;12.53;6.20;;;4.30;99.90;;;;;;5035608;28;20111;-49
2023/04/02 06:50:51;;;;;;;;;;;4.30;99.90;;;;;;5036563;28;20041;-50
2023/04/02 06:53:31;;;;;;;9.83;5.33;;;4.30;99.90;;;;;;5035615;28;19909;-49
2023/04/02 06:56:11;;;;;;;13.90;6.07;;;4.20;99.90;;;;;;5053795;28;20035;-51
2023/04/02 06:58:37;;;;;;;16.20;7.10;;;4.20;99.90;;;;;;5053547;28;20388;-50
2023/04/02 07:01:03;;;;;;;14.10;6.13;;;4.20;99.90;;;;;;5035719;28;20047;-49
2023/04/02 07:03:35;;;;;;;10.13;5.60;;;4.20;99.90;;;;;;5035565;28;20078;-51
2023/04/02 07:08:38;;;;;;;10.00;5.77;;;4.20;99.90;;;;;;5068416;28;20041;-50
2023/04/02 07:11:04;;;;;;;14.57;6.10;;;4.20;99.90;;;;;;5055584;28;20268;-52
2023/04/02 07:13:30;;;;;;;11.37;5.40;;;4.20;99.90;;;;;;5055289;28;20040;-49
2023/04/02 07:15:56;;;;;;;11.63;5.50;;;4.20;99.90;;;;;;5055446;28;20041;-52
2023/04/02 07:18:28;;;;;;;12.20;5.23;;;4.20;99.90;;;;;;5055006;28;20036;-50
2023/04/02 07:20:55;;;;;;;9.77;4.80;;;4.20;99.90;;;;;;5055364;28;20056;-49
2023/04/02 07:23:22;;;;;;;10.13;5.30;;;4.30;99.90;;;;;;5055003;28;20031;-50
2023/04/02 07:25:50;;;;;;;10.73;5.10;;;4.30;99.90;;;;;;5073471;28;20028;-52
2023/04/02 07:28:16;;;;;;;9.40;5.47;;;4.30;99.90;;;;;;5072876;28;20081;-51
2023/04/02 07:30:43;;;;;;;11.50;5.60;;;4.30;99.90;;;;;;5072938;28;20052;-51
2023/04/02 07:33:17;;;;;;;8.63;5.20;;;4.30;99.90;;;;;;5073133;28;20070;-49
2023/04/02 07:35:43;;;;;;;13.33;5.30;;;4.30;99.90;;;;;;5072953;28;20118;-49
2023/04/02 07:38:10;;;;;;;11.00;4.93;;;4.40;99.90;;;;;;5072692;28;20017;-50
2023/04/02 07:40:36;;;;;;;8.90;4.80;;;4.30;99.90;;;;;;5072847;28;20483;-50
2023/04/02 07:43:02;;;;;;;10.00;4.73;;;4.30;99.90;;;;;;5072845;28;20032;-51
2023/04/02 07:45:28;;;;;;;10.43;4.90;;;4.30;99.90;;;;;;5072670;28;20502;-48
2023/04/02 07:47:54;;;;;;;8.57;4.27;;;4.40;99.90;;;;;;5072527;28;20028;-50
2023/04/02 07:50:20;;;;;;;12.30;5.00;;;4.40;99.90;;;;;;5072562;28;20024;-48
2023/04/02 07:52:46;;;;;;;13.27;4.70;;;4.40;99.90;;;;;;5072790;28;20055;-48
2023/04/02 07:55:13;;;;;;;14.03;5.47;;;4.40;99.90;;;;;;5072593;28;20493;-51
2023/04/02 07:57:54;;;;;;;10.80;4.70;;;4.30;99.90;;;;;;5054316;28;20412;-51
2023/04/02 08:00:21;;;;;;;9.93;4.30;;;4.40;99.90;;;;;;5072388;28;20120;-51
2023/04/02 08:02:47;;;;;;;8.47;4.60;;;4.40;99.90;;;;;;5072289;28;20064;-51
2023/04/02 08:05:14;;;;;;;12.80;5.07;;;4.50;99.90;;;;;;5072315;28;20086;-50
2023/04/02 08:07:40;;;;;;;8.57;4.87;;;4.40;99.90;;;;;;5072204;28;20033;-53
2023/04/02 08:10:07;;;;;;;8.53;4.77;;;4.50;99.90;;;;;;5072354;28;20104;-52
2023/04/02 08:12:33;;;;;;;9.07;4.20;;;4.50;99.90;;;;;;5072307;28;20121;-48
2023/04/02 08:14:59;;;;;;;8.87;4.20;;;4.60;99.90;;;;;;5072141;28;20113;-50
2023/04/02 08:17:30;;;;;;;9.80;4.63;;;4.50;99.90;;;;;;5071897;28;20032;-49
2023/04/02 08:19:59;;;;;;;9.03;4.37;;;4.50;99.90;;;;;;5072278;28;20036;-48
2023/04/02 08:22:27;;;;;;;8.00;3.97;;;4.50;99.90;;;;;;5072110;28;20370;-47
2023/04/02 08:24:53;;;;;;;7.40;4.47;;;4.50;99.90;;;;;;5071898;28;20028;-50
2023/04/02 08:27:19;;;;;;;9.93;4.27;;;4.50;99.90;;;;;;5071790;28;20020;-52
2023/04/02 08:29:44;;;;;;;14.07;5.00;;;4.60;99.90;;;;;;5071794;28;20048;-53
2023/04/02 08:32:15;;;;;;;9.43;4.40;;;4.60;99.90;;;;;;5071886;28;20033;-51
2023/04/02 08:34:41;;;;;;;10.47;4.37;;;4.50;99.90;;;;;;5071707;28;20036;-49
2023/04/02 08:37:11;;;;;;;12.03;4.63;;;4.60;99.90;;;;;;5037364;28;20055;-49
2023/04/02 08:39:37;;;;;;;9.55;3.85;;;4.60;99.90;;;;;;5054090;28;20030;-49
2023/04/02 08:42:14;;;;;;;12.40;3.90;;;4.60;99.90;;;;;;5071815;28;20266;-50
2023/04/02 08:44:45;;;;;;;10.57;4.47;;;4.70;99.90;;;;;;5052903;28;20547;-48
2023/04/02 08:47:13;;;;;;;8.90;4.33;;;4.70;99.90;;;;;;5071629;28;20508;-49
2023/04/02 08:50:00;;;;;;;11.33;4.10;;;4.80;99.90;;;;;;5071662;28;20434;-50
2023/04/02 08:52:30;;;;;;;10.03;4.20;;;4.80;99.90;;;;;;5071615;28;20032;-51
2023/04/02 08:54:57;;;;;;;8.77;4.27;;;4.80;99.90;;;;;;5071302;28;20033;-51
2023/04/02 08:57:48;;;;;;;9.20;4.17;;;4.90;99.90;;;;;;5071853;28;20033;-47
2023/04/02 09:00:14;;;;;;;7.33;3.80;;;5.00;99.90;;;;;;5053647;28;20028;-50
2023/04/02 09:03:15;;;;;;;7.73;3.97;;;5.10;99.90;;;;;;5071478;28;20078;-48
2023/04/02 09:05:44;;;;;;;7.37;3.50;;;5.10;99.90;;;;;;5071103;28;20032;-51
2023/04/02 09:08:23;;;;;;;9.77;4.33;;;5.20;99.90;;;;;;5071207;28;20036;-48
2023/04/02 09:11:11;;;;;;;9.95;3.50;;;5.40;99.90;;;;;;5071590;28;20430;-50
2023/04/02 09:13:45;;;;;;;7.20;3.58;;;5.40;99.90;;;;;;5071142;28;20029;-51
2023/04/02 09:16:13;;;;;;;9.07;3.90;;;5.40;99.90;;;;;;5071485;28;20127;-47
2023/04/02 09:18:40;;;;;;;7.70;3.40;;;5.30;99.90;;;;;;5071065;28;20032;-51
2023/04/02 09:21:37;;;;;;;7.70;3.63;;;5.40;99.90;;;;;;5071316;28;20419;-49
2023/04/02 09:24:03;;;;;;;7.43;3.40;;;5.50;99.90;;;;;;5070930;28;20040;-49
2023/04/02 09:26:32;;;;;;;8.30;3.97;;;5.50;99.90;;;;;;5071021;28;20040;-49
2023/04/02 09:29:26;;;;;;;5.27;3.20;;;5.60;99.90;;;;;;5070873;28;20035;-48
2023/04/02 09:32:01;;;;;;;6.87;3.50;;;5.70;99.90;;;;;;5070974;28;20044;-51
2023/04/02 09:34:35;;;;;;;7.97;3.53;;;5.80;99.90;;;;;;5070606;28;20020;-48
2023/04/02 09:37:24;;;;;;;6.77;3.07;;;5.90;99.90;;;;;;5070819;28;20028;-49
2023/04/02 09:39:50;;;;;;;9.80;3.38;;;6.00;99.90;;;;;;5071140;28;20032;-52
2023/04/02 09:42:32;;;;;;;5.27;2.93;;;5.90;99.90;;;;;;5070693;28;20093;-49
2023/04/02 09:45:21;;;;;;;6.50;2.87;;;5.90;99.90;;;;;;5070518;28;20416;-49
2023/04/02 09:47:48;;;;;;;8.43;3.30;;;6.00;99.90;;;;;;5070491;28;20040;-47
2023/04/02 09:50:20;;;;;;;15.00;4.50;;;6.00;99.90;;;;;;5070772;28;20393;-52
2023/04/02 09:52:46;;;;;;;6.60;3.13;;;5.90;99.90;;;;;;5071088;28;20036;-49
2023/04/02 09:55:27;;;;;;;4.97;2.73;;;6.00;99.90;;;;;;5070331;28;20031;-51
2023/04/02 09:58:10;;;;;;;7.43;3.20;;;5.90;99.90;;;;;;5070413;28;20456;-49
2023/04/02 10:00:37;;;;;;;10.37;3.67;;;5.90;99.90;;;;;;5052427;28;20408;-48
2023/04/02 10:03:22;;;;;;;6.70;3.23;;;6.00;99.90;;;;;;5070580;28;20078;-47
2023/04/02 10:06:02;;;;;;;7.00;2.77;;;5.90;99.90;;;;;;5037163;28;20035;-50
2023/04/02 10:08:28;;;;;;;6.73;3.20;;;6.10;99.90;;;;;;5070241;28;20059;-51
2023/04/02 10:10:57;;;;;;;7.47;3.13;;;6.00;99.90;;;;;;5070426;28;20121;-50
2023/04/02 10:13:34;;;;;;;7.47;3.40;;;6.00;99.90;;;;;;5070177;28;20048;-50
2023/04/02 10:16:10;;;;;;;6.43;3.00;;;6.00;99.90;;;;;;5070334;28;20113;-51
2023/04/02 10:18:57;;;;;;;6.17;2.87;;;6.10;99.90;;;;;;5070107;28;20025;-51
2023/04/02 10:21:30;;;;;;;5.30;2.63;;;6.20;99.90;;;;;;5070403;28;20029;-48
2023/04/02 10:23:58;;;;;;;8.03;3.23;;;6.30;99.90;;;;;;5070200;28;20036;-50
2023/04/02 10:26:37;;;;;;;8.20;3.00;;;6.20;99.90;;;;;;5069971;28;20445;-48
2023/04/02 10:29:40;;;;;;;6.88;3.38;;;6.20;99.90;;;;;;5070237;28;20037;-49
2023/04/02 10:32:15;;;;;;;6.10;3.30;;;6.30;99.90;;;;;;5070276;28;20545;-49
2023/04/02 10:34:56;;;;;;;9.63;3.20;;;6.30;99.90;;;;;;5070086;28;20408;-50
2023/04/02 10:37:47;;;;;;;8.80;3.30;;;6.30;99.90;;;;;;5069955;28;20439;-48
2023/04/02 10:40:38;;;;;;;8.90;3.30;;;6.40;99.90;;;;;;5070143;28;20032;-49
2023/04/02 10:43:13;;;;;;;7.60;3.53;;;6.40;99.90;;;;;;5070067;28;20492;-50
2023/04/02 10:46:15;;;;;;;8.00;3.90;;;6.30;99.90;;;;;;5069954;28;20025;-48
2023/04/02 10:48:59;;;;;;;8.53;3.33;;;6.30;99.90;;;;;;5010835;28;20029;-49
2023/04/02 10:51:48;;;;;;;6.77;2.83;;;6.50;99.90;;;;;;5066588;28;20242;-48
2023/04/02 10:54:38;;;;;;;6.88;3.28;;;6.50;99.90;;;;;;5064183;28;20072;-49
2023/04/02 10:57:14;;;;;;;7.53;3.33;;;6.40;99.90;;;;;;5069752;28;20488;-52
2023/04/02 10:59:46;;;;;;;5.40;2.90;;;6.30;99.90;;;;;;5069890;28;20036;-50
2023/04/02 11:02:30;;;;;;;6.93;3.27;;;6.30;99.90;;;;;;5070170;28;20040;-48
2023/04/02 11:05:00;;;;;;;5.07;2.90;;;6.30;99.90;;;;;;5069787;28;20108;-50
2023/04/02 11:07:29;;;;;;;8.37;3.30;;;6.30;99.90;;;;;;5070062;28;20032;-51
2023/04/02 11:09:57;;;;;;;7.10;3.55;;;6.20;99.90;;;;;;5073324;28;20066;-50
2023/04/02 11:12:30;;;;;;;7.50;3.20;;;6.10;99.90;;;;;;5073339;28;20036;-48
2023/04/02 11:14:56;;;;;;;7.40;3.37;;;6.00;99.90;;;;;;5073507;28;20025;-50
2023/04/02 11:17:23;;;;;;;8.83;3.07;;;6.10;99.90;;;;;;5073299;28;20390;-48
2023/04/02 11:19:49;;;;;;;8.97;3.70;;;6.10;99.90;;;;;;5073274;28;20040;-50
2023/04/02 11:22:24;;;;;;;6.23;3.40;;;6.10;99.90;;;;;;5073168;28;20039;-51
2023/04/02 11:24:54;;;;;;;7.00;3.40;;;6.00;99.90;;;;;;5072955;28;20028;-52
2023/04/02 11:27:28;;;;;;;10.37;3.27;;;6.10;99.90;;;;;;5072856;28;20496;-49
2023/04/02 11:30:02;;;;;;;7.30;3.10;;;6.10;99.90;;;;;;5073044;28;20047;-51
2023/04/02 11:32:36;;;;;;;10.93;3.50;;;6.10;99.90;;;;;;5073313;28;20441;-49
2023/04/02 11:35:30;;;;;;;7.73;3.40;;;6.10;99.90;;;;;;5072890;28;20040;-51
2023/04/02 11:37:59;;;;;;;7.70;3.50;;;6.20;99.90;;;;;;5054811;28;20038;-48
2023/04/02 11:40:48;;;;;;;5.63;3.30;;;6.20;99.90;;;;;;5072922;28;20107;-48
2023/04/02 11:43:32;;;;;;;6.35;2.90;;;6.20;99.90;;;;;;5072784;28;20040;-48
2023/04/02 11:46:24;;;;;;;7.03;3.20;;;6.30;99.90;;;;;;5073138;28;20079;-53
2023/04/02 11:48:53;;;;;;;6.27;3.00;;;6.30;99.90;;;;;;5072760;28;20554;-49
2023/04/02 11:51:22;;;;;;;5.80;2.70;;;6.40;99.90;;;;;;5072828;28;20025;-49
2023/04/02 11:53:57;;;;;;;5.78;2.78;;;6.50;99.90;;;;;;5073024;28;20107;-52
2023/04/02 11:56:35;;;;;;;6.20;2.83;;;6.60;99.90;;;;;;5072582;28;20441;-50
2023/04/02 11:59:17;;;;;;;6.07;2.50;;;6.60;99.90;;;;;;5072544;28;20054;-53
2023/04/02 12:02:18;;;;;;;7.77;2.70;;;6.60;99.90;;;;;;5072425;28;20025;-49
2023/04/02 12:05:03;;;;;;;7.73;2.70;;;6.80;99.90;;;;;;5072493;28;20024;-47
2023/04/02 12:08:07;;;;;;;5.97;2.40;;;6.70;99.90;;;;;;5072182;28;20039;-50
2023/04/02 12:10:49;;;;;;;5.60;2.70;;;6.80;99.90;;;;;;5054446;28;20155;-52
2023/04/02 12:13:40;;;;;;;4.87;2.50;;;6.80;99.90;;;;;;5054530;28;20111;-48
2023/04/02 12:16:11;;;;;;;5.23;2.33;;;7.00;99.90;;;;;;5072091;28;20025;-50
2023/04/02 12:18:52;;;;;;;6.23;2.57;;;6.90;99.90;;;;;;5071679;28;20043;-50
2023/04/02 12:21:22;;;;;;;4.67;2.00;;;6.80;99.90;;;;;;5071789;28;20075;-52
2023/04/02 12:23:51;;;;;;;4.27;2.17;;;6.90;99.90;;;;;;5053997;28;20438;-51
2023/04/02 12:26:37;;;;;;;8.95;2.63;;;6.90;99.90;;;;;;5072034;28;20374;-53
2023/04/02 12:29:29;;;;;;;6.50;2.10;;;6.90;99.90;;;;;;5072177;28;20681;-48
2023/04/02 12:31:57;;;;;;;6.63;3.13;;;6.80;99.90;;;;;;5053162;28;20040;-48
2023/04/02 12:34:25;;;;;;;5.40;2.40;;;6.80;99.90;;;;;;5071912;28;20103;-51
2023/04/02 12:37:03;;;;;;;4.90;2.37;;;6.90;99.90;;;;;;5071554;28;20503;-49
2023/04/02 12:39:31;;;;;;;5.23;2.20;;;6.80;99.90;;;;;;5071761;28;20028;-52
2023/04/02 12:41:57;;;;;;;5.80;2.23;;;6.80;99.90;;;;;;5071473;28;20366;-49
2023/04/02 12:44:26;;;;;;;4.50;2.20;;;6.80;99.90;;;;;;5071391;28;20027;-48
2023/04/02 12:46:52;;;;;;;5.43;2.22;;;6.80;99.90;;;;;;5071242;28;20037;-50
2023/04/02 12:49:30;;;;;;;6.30;2.20;;;6.80;99.90;;;;;;5071832;28;20025;-49
2023/04/02 12:51:57;;;;;;;6.37;2.47;;;6.80;99.90;;;;;;5071527;28;20028;-50
2023/04/02 12:54:23;;;;;;;5.47;2.27;;;6.80;99.90;;;;;;5071281;28;20036;-55
2023/04/02 12:56:49;;;;;;;4.57;2.00;;;6.90;99.90;;;;;;5070975;28;20032;-51
2023/04/02 12:59:28;;;;;;;4.90;2.00;;;6.90;99.90;;;;;;5071529;28;20028;-54
2023/04/02 13:01:56;;;;;;;4.07;2.03;;;6.90;99.90;;;;;;5071421;28;20028;-50
2023/04/02 13:04:22;;;;;;;6.63;1.97;;;6.80;99.90;;;;;;5071036;28;20028;-47
2023/04/02 13:06:51;;;;;;;3.87;1.80;;;6.80;99.90;;;;;;5082080;22;20100;-46
2023/04/02 13:09:49;;;;;;;4.13;2.00;;;7.00;99.90;;;;;;5030914;28;20552;-50
2023/04/02 13:12:35;;;;;;;5.63;2.33;;;7.10;99.90;;;;;;5031302;28;20041;-50
2023/04/02 13:15:04;;;;;;;4.57;2.50;;;7.10;99.90;;;;;;5031011;28;20375;-50
2023/04/02 13:17:47;;;;;;;6.18;2.00;;;7.00;99.90;;;;;;5013121;28;20037;-52
2023/04/02 13:20:31;;;;;;;4.17;2.07;;;7.00;99.90;;;;;;5031263;28;20124;-48
2023/04/02 13:22:58;;;;;;;5.33;2.00;;;7.00;99.90;;;;;;5030917;28;20088;-50
2023/04/02 13:25:33;;;;;;;6.10;2.20;;;7.10;99.90;;;;;;5030811;28;20040;-52
2023/04/02 13:27:59;;;;;;;4.00;1.70;;;6.90;99.90;;;;;;5030567;28;20045;-50
2023/04/02 13:30:27;;;;;;;5.67;2.13;;;6.90;99.90;;;;;;5030818;28;20025;-51
2023/04/02 13:32:53;;;;;;;4.00;1.90;;;6.80;99.90;;;;;;5030867;28;20062;-49
2023/04/02 13:35:19;;;;;;;4.20;1.90;;;6.90;99.90;;;;;;5030747;28;20087;-50
2023/04/02 13:37:45;;;;;;;5.27;1.53;;;6.90;99.90;;;;;;5030536;28;20041;-49
2023/04/02 13:40:16;;;;;;;4.13;1.70;;;7.00;99.90;;;;;;5030754;28;20029;-49
2023/04/02 13:42:43;;;;;;;3.77;2.00;;;7.00;99.90;;;;;;5030706;28;20051;-47
2023/04/02 13:45:24;;;;;;;3.23;1.63;;;7.10;99.90;;;;;;5012796;28;20482;-47